sensor_id;sensor_type;location;lat;lon;timestamp;temperature;humidity
37530;DHT22;23374;52.758;6.872;2024-01-06T00:00:05;3.90;1.00
37530;DHT22;23374;52.758;6.872;2024-01-06T00:02:25;3.90;1.00
37530;DHT22;23374;52.758;6.872;2024-01-06T00:04:46;3.90;1.00
37530;DHT22;23374;52.758;6.872;2024-01-06T00:07:08;3.90;1.00
37530;DHT22;23374;52.758;6.872;2024-01-06T00:09:29;3.90;1.00
37530;DHT22;23374;52.758;6.872;2024-01-06T00:11:51;3.90;1.00
37530;DHT22;23374;52.758;6.872;2024-01-06T00:15:38;3.90;1.00
37530;DHT22;23374;52.758;6.872;2024-01-06T00:17:58;3.80;1.00
37530;DHT22;23374;52.758;6.872;2024-01-06T00:20:19;3.80;1.00
37530;DHT22;23374;52.758;6.872;2024-01-06T00:22:39;3.80;1.00
37530;DHT22;23374;52.758;6.872;2024-01-06T00:24:59;3.80;1.00
37530;DHT22;23374;52.758;6.872;2024-01-06T00:27:20;3.80;1.00
37530;DHT22;23374;52.758;6.872;2024-01-06T00:29:40;3.80;1.00
37530;DHT22;23374;52.758;6.872;2024-01-06T00:32:00;3.80;1.00
37530;DHT22;23374;52.758;6.872;2024-01-06T00:34:20;3.80;1.00
37530;DHT22;23374;52.758;6.872;2024-01-06T00:36:41;3.70;99.90
37530;DHT22;23374;52.758;6.872;2024-01-06T00:39:01;3.70;99.90
37530;DHT22;23374;52.758;6.872;2024-01-06T00:41:23;3.70;99.90
37530;DHT22;23374;52.758;6.872;2024-01-06T00:43:43;3.70;99.90
37530;DHT22;23374;52.758;6.872;2024-01-06T00:46:03;3.60;99.90
37530;DHT22;23374;52.758;6.872;2024-01-06T00:48:24;3.60;99.90
37530;DHT22;23374;52.758;6.872;2024-01-06T00:50:44;3.60;7.80
37530;DHT22;23374;52.758;6.872;2024-01-06T00:53:05;3.50;99.90
37530;DHT22;23374;52.758;6.872;2024-01-06T00:55:25;3.50;1.00
37530;DHT22;23374;52.758;6.872;2024-01-06T00:57:46;3.50;26.50
37530;DHT22;23374;52.758;6.872;2024-01-06T01:00:07;3.50;99.90
37530;DHT22;23374;52.758;6.872;2024-01-06T01:02:27;3.50;1.00
37530;DHT22;23374;52.758;6.872;2024-01-06T01:04:48;3.50;99.90
37530;DHT22;23374;52.758;6.872;2024-01-06T01:07:08;3.40;99.90
37530;DHT22;23374;52.758;6.872;2024-01-06T01:09:28;3.40;60.40
37530;DHT22;23374;52.758;6.872;2024-01-06T01:11:49;3.40;99.90
37530;DHT22;23374;52.758;6.872;2024-01-06T01:15:43;3.40;99.90
37530;DHT22;23374;52.758;6.872;2024-01-06T01:18:04;3.40;99.90
37530;DHT22;23374;52.758;6.872;2024-01-06T01:20:24;3.40;99.90
37530;DHT22;23374;52.758;6.872;2024-01-06T01:22:45;3.40;99.90
37530;DHT22;23374;52.758;6.872;2024-01-06T01:25:05;3.30;99.90
37530;DHT22;23374;52.758;6.872;2024-01-06T01:27:27;3.30;99.90
37530;DHT22;23374;52.758;6.872;2024-01-06T01:29:47;3.30;99.90
37530;DHT22;23374;52.758;6.872;2024-01-06T01:32:10;3.30;99.90
37530;DHT22;23374;52.758;6.872;2024-01-06T01:34:31;3.30;99.90
37530;DHT22;23374;52.758;6.872;2024-01-06T01:36:51;3.20;99.90
37530;DHT22;23374;52.758;6.872;2024-01-06T01:39:11;3.20;99.90
37530;DHT22;23374;52.758;6.872;2024-01-06T01:41:32;3.20;99.90
37530;DHT22;23374;52.758;6.872;2024-01-06T01:43:52;3.20;99.90
37530;DHT22;23374;52.758;6.872;2024-01-06T01:46:18;3.20;99.90
37530;DHT22;23374;52.758;6.872;2024-01-06T01:48:39;3.20;99.90
37530;DHT22;23374;52.758;6.872;2024-01-06T01:51:00;3.20;99.90
37530;DHT22;23374;52.758;6.872;2024-01-06T01:53:22;3.10;99.90
37530;DHT22;23374;52.758;6.872;2024-01-06T01:55:45;3.10;99.90
37530;DHT22;23374;52.758;6.872;2024-01-06T01:58:08;3.10;99.90
37530;DHT22;23374;52.758;6.872;2024-01-06T02:00:29;3.10;99.90
37530;DHT22;23374;52.758;6.872;2024-01-06T02:02:49;3.00;99.90
37530;DHT22;23374;52.758;6.872;2024-01-06T02:05:09;3.00;99.90
37530;DHT22;23374;52.758;6.872;2024-01-06T02:07:30;3.00;99.90
37530;DHT22;23374;52.758;6.872;2024-01-06T02:09:50;3.00;99.90
37530;DHT22;23374;52.758;6.872;2024-01-06T02:12:10;3.00;99.90
37530;DHT22;23374;52.758;6.872;2024-01-06T02:15:48;3.00;99.90
37530;DHT22;23374;52.758;6.872;2024-01-06T02:18:10;3.00;99.90
37530;DHT22;23374;52.758;6.872;2024-01-06T02:20:31;3.00;1.00
37530;DHT22;23374;52.758;6.872;2024-01-06T02:22:51;3.00;99.90
37530;DHT22;23374;52.758;6.872;2024-01-06T02:25:12;3.00;99.90
37530;DHT22;23374;52.758;6.872;2024-01-06T02:27:33;3.00;99.90
37530;DHT22;23374;52.758;6.872;2024-01-06T02:29:53;3.00;99.90
37530;DHT22;23374;52.758;6.872;2024-01-06T02:32:13;3.00;99.90
37530;DHT22;23374;52.758;6.872;2024-01-06T02:34:33;2.90;62.70
37530;DHT22;23374;52.758;6.872;2024-01-06T02:36:54;2.90;99.90
37530;DHT22;23374;52.758;6.872;2024-01-06T02:39:15;2.90;99.90
37530;DHT22;23374;52.758;6.872;2024-01-06T02:41:37;2.90;89.20
37530;DHT22;23374;52.758;6.872;2024-01-06T02:43:57;2.90;99.40
37530;DHT22;23374;52.758;6.872;2024-01-06T02:46:17;2.80;77.40
37530;DHT22;23374;52.758;6.872;2024-01-06T02:48:38;2.80;99.90
37530;DHT22;23374;52.758;6.872;2024-01-06T02:50:58;2.90;99.90
37530;DHT22;23374;52.758;6.872;2024-01-06T02:53:18;2.90;99.90
37530;DHT22;23374;52.758;6.872;2024-01-06T02:55:39;2.90;99.90
37530;DHT22;23374;52.758;6.872;2024-01-06T02:57:59;2.90;1.00
37530;DHT22;23374;52.758;6.872;2024-01-06T03:00:21;2.80;6.80
37530;DHT22;23374;52.758;6.872;2024-01-06T03:02:41;2.80;99.90
37530;DHT22;23374;52.758;6.872;2024-01-06T03:05:03;2.80;1.00
37530;DHT22;23374;52.758;6.872;2024-01-06T03:07:24;2.80;99.90
37530;DHT22;23374;52.758;6.872;2024-01-06T03:09:44;2.80;99.90
37530;DHT22;23374;52.758;6.872;2024-01-06T03:12:08;2.80;99.90
37530;DHT22;23374;52.758;6.872;2024-01-06T03:15:53;2.70;72.60
37530;DHT22;23374;52.758;6.872;2024-01-06T03:18:14;2.70;1.00
37530;DHT22;23374;52.758;6.872;2024-01-06T03:20:35;2.70;96.30
37530;DHT22;23374;52.758;6.872;2024-01-06T03:22:55;2.70;99.90
37530;DHT22;23374;52.758;6.872;2024-01-06T03:25:16;2.60;99.90
37530;DHT22;23374;52.758;6.872;2024-01-06T03:27:36;2.60;1.00
37530;DHT22;23374;52.758;6.872;2024-01-06T03:29:56;2.60;99.90
37530;DHT22;23374;52.758;6.872;2024-01-06T03:32:17;2.60;99.90
37530;DHT22;23374;52.758;6.872;2024-01-06T03:34:37;2.50;99.90
37530;DHT22;23374;52.758;6.872;2024-01-06T03:36:58;2.60;1.00
37530;DHT22;23374;52.758;6.872;2024-01-06T03:39:18;2.60;99.90
37530;DHT22;23374;52.758;6.872;2024-01-06T03:41:38;2.50;99.90
37530;DHT22;23374;52.758;6.872;2024-01-06T03:43:59;2.50;99.90
37530;DHT22;23374;52.758;6.872;2024-01-06T03:46:19;2.50;99.90
37530;DHT22;23374;52.758;6.872;2024-01-06T03:48:40;2.50;99.90
37530;DHT22;23374;52.758;6.872;2024-01-06T03:51:02;2.50;1.00
37530;DHT22;23374;52.758;6.872;2024-01-06T03:53:23;2.50;99.90
37530;DHT22;23374;52.758;6.872;2024-01-06T03:55:43;2.50;1.00
37530;DHT22;23374;52.758;6.872;2024-01-06T03:58:03;2.50;1.00
37530;DHT22;23374;52.758;6.872;2024-01-06T04:00:26;2.50;1.00
37530;DHT22;23374;52.758;6.872;2024-01-06T04:02:46;2.50;1.00
37530;DHT22;23374;52.758;6.872;2024-01-06T04:05:07;2.60;1.00
37530;DHT22;23374;52.758;6.872;2024-01-06T04:07:27;2.60;1.00
37530;DHT22;23374;52.758;6.872;2024-01-06T04:09:48;2.60;1.00
37530;DHT22;23374;52.758;6.872;2024-01-06T04:12:08;2.60;99.90
37530;DHT22;23374;52.758;6.872;2024-01-06T04:15:58;2.50;99.90
37530;DHT22;23374;52.758;6.872;2024-01-06T04:18:19;2.60;99.90
37530;DHT22;23374;52.758;6.872;2024-01-06T04:20:39;2.60;99.90
37530;DHT22;23374;52.758;6.872;2024-01-06T04:22:59;2.60;1.00
37530;DHT22;23374;52.758;6.872;2024-01-06T04:25:20;2.60;1.00
37530;DHT22;23374;52.758;6.872;2024-01-06T04:27:41;2.60;99.90
37530;DHT22;23374;52.758;6.872;2024-01-06T04:30:01;2.60;99.90
37530;DHT22;23374;52.758;6.872;2024-01-06T04:32:22;2.60;99.90
37530;DHT22;23374;52.758;6.872;2024-01-06T04:34:42;2.50;99.90
37530;DHT22;23374;52.758;6.872;2024-01-06T04:37:03;2.50;9.50
37530;DHT22;23374;52.758;6.872;2024-01-06T04:39:23;2.50;1.00
37530;DHT22;23374;52.758;6.872;2024-01-06T04:41:44;2.50;99.90
37530;DHT22;23374;52.758;6.872;2024-01-06T04:44:04;2.50;54.20
37530;DHT22;23374;52.758;6.872;2024-01-06T04:46:25;2.50;99.90
37530;DHT22;23374;52.758;6.872;2024-01-06T04:48:45;2.50;99.90
37530;DHT22;23374;52.758;6.872;2024-01-06T04:51:05;2.50;99.90
37530;DHT22;23374;52.758;6.872;2024-01-06T04:53:29;2.50;99.90
37530;DHT22;23374;52.758;6.872;2024-01-06T04:55:49;2.50;99.90
37530;DHT22;23374;52.758;6.872;2024-01-06T04:58:09;2.60;1.00
37530;DHT22;23374;52.758;6.872;2024-01-06T05:00:30;2.60;66.50
37530;DHT22;23374;52.758;6.872;2024-01-06T05:02:50;2.60;99.90
37530;DHT22;23374;52.758;6.872;2024-01-06T05:05:10;2.60;1.00
37530;DHT22;23374;52.758;6.872;2024-01-06T05:07:31;2.50;1.00
37530;DHT22;23374;52.758;6.872;2024-01-06T05:09:51;2.50;1.00
37530;DHT22;23374;52.758;6.872;2024-01-06T05:12:11;2.50;99.90
37530;DHT22;23374;52.758;6.872;2024-01-06T05:16:04;2.40;1.00
37530;DHT22;23374;52.758;6.872;2024-01-06T05:18:25;2.40;1.00
37530;DHT22;23374;52.758;6.872;2024-01-06T05:20:45;2.40;41.50
37530;DHT22;23374;52.758;6.872;2024-01-06T05:23:07;2.40;1.00
37530;DHT22;23374;52.758;6.872;2024-01-06T05:25:27;2.40;1.00
37530;DHT22;23374;52.758;6.872;2024-01-06T05:27:48;2.40;1.00
37530;DHT22;23374;52.758;6.872;2024-01-06T05:30:09;2.40;1.00
37530;DHT22;23374;52.758;6.872;2024-01-06T05:32:29;2.40;1.00
37530;DHT22;23374;52.758;6.872;2024-01-06T05:34:50;2.40;10.40
37530;DHT22;23374;52.758;6.872;2024-01-06T05:37:10;2.40;1.00
37530;DHT22;23374;52.758;6.872;2024-01-06T05:39:30;2.40;34.30
37530;DHT22;23374;52.758;6.872;2024-01-06T05:41:50;2.40;99.90
37530;DHT22;23374;52.758;6.872;2024-01-06T05:44:10;2.40;45.10
37530;DHT22;23374;52.758;6.872;2024-01-06T05:46:31;2.40;99.90
37530;DHT22;23374;52.758;6.872;2024-01-06T05:48:51;2.40;1.00
37530;DHT22;23374;52.758;6.872;2024-01-06T05:51:11;2.40;99.90
37530;DHT22;23374;52.758;6.872;2024-01-06T05:53:32;2.40;15.50
37530;DHT22;23374;52.758;6.872;2024-01-06T05:55:52;2.40;99.90
37530;DHT22;23374;52.758;6.872;2024-01-06T05:58:13;2.40;1.00
37530;DHT22;23374;52.758;6.872;2024-01-06T06:00:33;2.40;99.90
37530;DHT22;23374;52.758;6.872;2024-01-06T06:02:53;2.40;1.00
37530;DHT22;23374;52.758;6.872;2024-01-06T06:05:14;2.40;8.40
37530;DHT22;23374;52.758;6.872;2024-01-06T06:07:34;2.40;1.00
37530;DHT22;23374;52.758;6.872;2024-01-06T06:09:58;2.40;56.30
37530;DHT22;23374;52.758;6.872;2024-01-06T06:12:19;2.40;5.20
37530;DHT22;23374;52.758;6.872;2024-01-06T06:16:10;2.30;14.00
37530;DHT22;23374;52.758;6.872;2024-01-06T06:18:32;2.30;1.00
37530;DHT22;23374;52.758;6.872;2024-01-06T06:20:52;2.30;84.00
37530;DHT22;23374;52.758;6.872;2024-01-06T06:23:13;2.30;99.90
37530;DHT22;23374;52.758;6.872;2024-01-06T06:25:33;2.30;15.10
37530;DHT22;23374;52.758;6.872;2024-01-06T06:27:54;2.30;99.90
37530;DHT22;23374;52.758;6.872;2024-01-06T06:30:15;2.40;99.90
37530;DHT22;23374;52.758;6.872;2024-01-06T06:32:35;2.40;47.80
37530;DHT22;23374;52.758;6.872;2024-01-06T06:34:55;2.30;1.00
37530;DHT22;23374;52.758;6.872;2024-01-06T06:37:15;2.30;1.00
37530;DHT22;23374;52.758;6.872;2024-01-06T06:39:36;2.30;1.00
37530;DHT22;23374;52.758;6.872;2024-01-06T06:41:56;2.30;1.00
37530;DHT22;23374;52.758;6.872;2024-01-06T06:44:16;2.30;1.00
37530;DHT22;23374;52.758;6.872;2024-01-06T06:46:37;2.30;1.00
37530;DHT22;23374;52.758;6.872;2024-01-06T06:48:57;2.30;1.00
37530;DHT22;23374;52.758;6.872;2024-01-06T06:51:17;2.30;1.00
37530;DHT22;23374;52.758;6.872;2024-01-06T06:53:38;2.20;1.00
37530;DHT22;23374;52.758;6.872;2024-01-06T06:55:58;2.20;1.00
37530;DHT22;23374;52.758;6.872;2024-01-06T06:58:18;2.20;1.00
37530;DHT22;23374;52.758;6.872;2024-01-06T07:00:39;2.20;1.00
37530;DHT22;23374;52.758;6.872;2024-01-06T07:02:59;2.20;1.00
37530;DHT22;23374;52.758;6.872;2024-01-06T07:05:20;2.10;1.00
37530;DHT22;23374;52.758;6.872;2024-01-06T07:07:40;2.10;1.00
37530;DHT22;23374;52.758;6.872;2024-01-06T07:10:02;2.10;1.00
37530;DHT22;23374;52.758;6.872;2024-01-06T07:12:25;2.10;1.00
37530;DHT22;23374;52.758;6.872;2024-01-06T07:16:14;2.00;1.00
37530;DHT22;23374;52.758;6.872;2024-01-06T07:18:34;2.00;25.60
37530;DHT22;23374;52.758;6.872;2024-01-06T07:20:54;2.00;1.00
37530;DHT22;23374;52.758;6.872;2024-01-06T07:23:14;2.00;36.80
37530;DHT22;23374;52.758;6.872;2024-01-06T07:25:34;2.10;99.90
37530;DHT22;23374;52.758;6.872;2024-01-06T07:27:55;2.10;99.90
37530;DHT22;23374;52.758;6.872;2024-01-06T07:30:16;2.10;99.90
37530;DHT22;23374;52.758;6.872;2024-01-06T07:32:36;2.10;1.00
37530;DHT22;23374;52.758;6.872;2024-01-06T07:34:57;2.10;10.50
37530;DHT22;23374;52.758;6.872;2024-01-06T07:37:17;2.00;1.00
37530;DHT22;23374;52.758;6.872;2024-01-06T07:39:37;2.00;11.80
37530;DHT22;23374;52.758;6.872;2024-01-06T07:41:58;2.00;11.60
37530;DHT22;23374;52.758;6.872;2024-01-06T07:44:18;2.00;1.00
37530;DHT22;23374;52.758;6.872;2024-01-06T07:46:44;2.00;33.30
37530;DHT22;23374;52.758;6.872;2024-01-06T07:49:05;2.00;1.00
37530;DHT22;23374;52.758;6.872;2024-01-06T07:51:25;2.00;1.00
37530;DHT22;23374;52.758;6.872;2024-01-06T07:53:45;2.00;22.70
37530;DHT22;23374;52.758;6.872;2024-01-06T07:56:06;2.00;96.70
37530;DHT22;23374;52.758;6.872;2024-01-06T07:58:26;2.00;1.00
37530;DHT22;23374;52.758;6.872;2024-01-06T08:00:48;2.00;1.00
37530;DHT22;23374;52.758;6.872;2024-01-06T08:03:08;2.00;27.90
37530;DHT22;23374;52.758;6.872;2024-01-06T08:05:29;2.10;99.90
37530;DHT22;23374;52.758;6.872;2024-01-06T08:07:51;2.00;1.00
37530;DHT22;23374;52.758;6.872;2024-01-06T08:10:12;2.10;1.00
37530;DHT22;23374;52.758;6.872;2024-01-06T08:12:32;2.10;1.00
37530;DHT22;23374;52.758;6.872;2024-01-06T08:14:53;2.10;1.00
37530;DHT22;23374;52.758;6.872;2024-01-06T08:17:13;2.10;1.00
37530;DHT22;23374;52.758;6.872;2024-01-06T08:19:34;2.10;1.00
37530;DHT22;23374;52.758;6.872;2024-01-06T08:21:55;2.10;1.00
37530;DHT22;23374;52.758;6.872;2024-01-06T08:24:16;2.10;1.00
37530;DHT22;23374;52.758;6.872;2024-01-06T08:26:37;2.00;1.00
37530;DHT22;23374;52.758;6.872;2024-01-06T08:28:57;2.00;1.00
37530;DHT22;23374;52.758;6.872;2024-01-06T08:31:17;2.00;1.00
37530;DHT22;23374;52.758;6.872;2024-01-06T08:33:38;2.00;1.00
37530;DHT22;23374;52.758;6.872;2024-01-06T08:35:58;1.90;1.00
37530;DHT22;23374;52.758;6.872;2024-01-06T08:38:19;2.00;1.00
37530;DHT22;23374;52.758;6.872;2024-01-06T08:40:39;2.00;1.00
37530;DHT22;23374;52.758;6.872;2024-01-06T08:43:00;2.00;1.00
37530;DHT22;23374;52.758;6.872;2024-01-06T08:45:21;2.00;1.00
37530;DHT22;23374;52.758;6.872;2024-01-06T08:47:42;2.00;1.00
37530;DHT22;23374;52.758;6.872;2024-01-06T08:50:03;2.00;1.00
37530;DHT22;23374;52.758;6.872;2024-01-06T08:52:24;2.00;1.00
37530;DHT22;23374;52.758;6.872;2024-01-06T08:54:44;2.00;1.00
37530;DHT22;23374;52.758;6.872;2024-01-06T08:57:05;2.00;1.00
37530;DHT22;23374;52.758;6.872;2024-01-06T08:59:26;2.00;1.00
37530;DHT22;23374;52.758;6.872;2024-01-06T09:01:46;2.00;1.00
37530;DHT22;23374;52.758;6.872;2024-01-06T09:04:06;2.00;1.00
37530;DHT22;23374;52.758;6.872;2024-01-06T09:06:27;2.00;1.00
37530;DHT22;23374;52.758;6.872;2024-01-06T09:08:47;2.00;1.00
37530;DHT22;23374;52.758;6.872;2024-01-06T09:11:07;2.00;1.00
37530;DHT22;23374;52.758;6.872;2024-01-06T09:13:28;2.00;1.00
37530;DHT22;23374;52.758;6.872;2024-01-06T09:15:49;2.00;1.00
37530;DHT22;23374;52.758;6.872;2024-01-06T09:18:11;2.00;99.90
37530;DHT22;23374;52.758;6.872;2024-01-06T09:20:32;2.00;1.00
37530;DHT22;23374;52.758;6.872;2024-01-06T09:22:52;2.00;1.00
37530;DHT22;23374;52.758;6.872;2024-01-06T09:25:13;2.00;1.00
37530;DHT22;23374;52.758;6.872;2024-01-06T09:27:33;2.00;99.90
37530;DHT22;23374;52.758;6.872;2024-01-06T09:29:54;2.00;99.90
37530;DHT22;23374;52.758;6.872;2024-01-06T09:32:14;2.00;99.90
37530;DHT22;23374;52.758;6.872;2024-01-06T09:34:34;2.00;99.90
37530;DHT22;23374;52.758;6.872;2024-01-06T09:36:54;2.00;99.90
37530;DHT22;23374;52.758;6.872;2024-01-06T09:39:15;2.00;1.00
37530;DHT22;23374;52.758;6.872;2024-01-06T09:41:35;2.10;99.90
37530;DHT22;23374;52.758;6.872;2024-01-06T09:43:56;2.00;99.90
37530;DHT22;23374;52.758;6.872;2024-01-06T09:46:29;2.00;99.90
37530;DHT22;23374;52.758;6.872;2024-01-06T09:48:51;2.10;99.90
37530;DHT22;23374;52.758;6.872;2024-01-06T09:51:16;2.10;99.90
37530;DHT22;23374;52.758;6.872;2024-01-06T09:53:42;2.00;99.90
37530;DHT22;23374;52.758;6.872;2024-01-06T09:56:05;2.00;99.90
37530;DHT22;23374;52.758;6.872;2024-01-06T09:58:25;2.10;99.90
37530;DHT22;23374;52.758;6.872;2024-01-06T10:00:50;2.10;99.90
37530;DHT22;23374;52.758;6.872;2024-01-06T10:03:11;2.10;99.90
37530;DHT22;23374;52.758;6.872;2024-01-06T10:05:32;2.20;99.90
37530;DHT22;23374;52.758;6.872;2024-01-06T10:07:53;2.20;99.90
37530;DHT22;23374;52.758;6.872;2024-01-06T10:10:14;2.20;99.90
37530;DHT22;23374;52.758;6.872;2024-01-06T10:12:40;2.20;99.90
37530;DHT22;23374;52.758;6.872;2024-01-06T10:15:02;2.20;1.00
37530;DHT22;23374;52.758;6.872;2024-01-06T10:17:22;2.10;27.70
37530;DHT22;23374;52.758;6.872;2024-01-06T10:19:45;2.10;99.90
37530;DHT22;23374;52.758;6.872;2024-01-06T10:22:05;2.20;99.90
37530;DHT22;23374;52.758;6.872;2024-01-06T10:24:27;2.20;99.90
37530;DHT22;23374;52.758;6.872;2024-01-06T10:26:47;2.20;1.00
37530;DHT22;23374;52.758;6.872;2024-01-06T10:29:08;2.20;96.10
37530;DHT22;23374;52.758;6.872;2024-01-06T10:31:29;2.20;1.00
37530;DHT22;23374;52.758;6.872;2024-01-06T10:33:50;2.10;1.00
37530;DHT22;23374;52.758;6.872;2024-01-06T10:36:10;2.20;19.60
37530;DHT22;23374;52.758;6.872;2024-01-06T10:38:31;2.10;1.00
37530;DHT22;23374;52.758;6.872;2024-01-06T10:41:02;2.20;1.00
37530;DHT22;23374;52.758;6.872;2024-01-06T10:43:27;2.10;1.00
37530;DHT22;23374;52.758;6.872;2024-01-06T10:45:49;2.10;1.00
37530;DHT22;23374;52.758;6.872;2024-01-06T10:48:10;2.10;1.00
37530;DHT22;23374;52.758;6.872;2024-01-06T10:50:30;2.10;1.00
37530;DHT22;23374;52.758;6.872;2024-01-06T10:52:52;2.10;22.00
37530;DHT22;23374;52.758;6.872;2024-01-06T10:55:15;2.10;1.00
37530;DHT22;23374;52.758;6.872;2024-01-06T10:57:38;2.10;1.00
37530;DHT22;23374;52.758;6.872;2024-01-06T10:59:59;2.10;1.00
37530;DHT22;23374;52.758;6.872;2024-01-06T11:02:20;2.10;1.00
37530;DHT22;23374;52.758;6.872;2024-01-06T11:04:41;2.00;1.00
37530;DHT22;23374;52.758;6.872;2024-01-06T11:07:02;2.00;1.00
37530;DHT22;23374;52.758;6.872;2024-01-06T11:09:31;2.00;1.00
37530;DHT22;23374;52.758;6.872;2024-01-06T11:11:54;2.00;1.00
37530;DHT22;23374;52.758;6.872;2024-01-06T11:14:26;2.00;1.00
37530;DHT22;23374;52.758;6.872;2024-01-06T11:16:48;2.00;1.00
37530;DHT22;23374;52.758;6.872;2024-01-06T11:20:27;2.00;1.00
37530;DHT22;23374;52.758;6.872;2024-01-06T11:22:49;2.00;1.00
37530;DHT22;23374;52.758;6.872;2024-01-06T11:25:15;2.00;1.00
37530;DHT22;23374;52.758;6.872;2024-01-06T11:27:36;2.00;1.00
37530;DHT22;23374;52.758;6.872;2024-01-06T11:30:02;2.00;1.00
37530;DHT22;23374;52.758;6.872;2024-01-06T11:32:38;1.90;1.00
37530;DHT22;23374;52.758;6.872;2024-01-06T11:35:11;2.00;1.00
37530;DHT22;23374;52.758;6.872;2024-01-06T11:37:50;2.00;1.00
37530;DHT22;23374;52.758;6.872;2024-01-06T11:40:30;2.00;1.00
37530;DHT22;23374;52.758;6.872;2024-01-06T11:43:10;2.00;1.00
37530;DHT22;23374;52.758;6.872;2024-01-06T11:45:33;2.10;1.00
37530;DHT22;23374;52.758;6.872;2024-01-06T11:47:59;2.10;1.00
37530;DHT22;23374;52.758;6.872;2024-01-06T11:50:23;2.10;1.00
37530;DHT22;23374;52.758;6.872;2024-01-06T11:52:45;2.10;1.00
37530;DHT22;23374;52.758;6.872;2024-01-06T11:55:06;2.10;1.00
37530;DHT22;23374;52.758;6.872;2024-01-06T11:57:30;2.10;1.00
37530;DHT22;23374;52.758;6.872;2024-01-06T11:59:50;2.20;1.00
37530;DHT22;23374;52.758;6.872;2024-01-06T12:02:12;2.20;1.00
37530;DHT22;23374;52.758;6.872;2024-01-06T12:04:33;2.20;1.00
37530;DHT22;23374;52.758;6.872;2024-01-06T12:06:53;2.20;1.00
37530;DHT22;23374;52.758;6.872;2024-01-06T12:09:24;2.20;1.00
37530;DHT22;23374;52.758;6.872;2024-01-06T12:11:46;2.20;1.00
37530;DHT22;23374;52.758;6.872;2024-01-06T12:14:07;2.20;99.90
37530;DHT22;23374;52.758;6.872;2024-01-06T12:16:27;2.20;1.00
37530;DHT22;23374;52.758;6.872;2024-01-06T12:18:48;2.20;99.90
37530;DHT22;23374;52.758;6.872;2024-01-06T12:21:08;2.20;99.90
37530;DHT22;23374;52.758;6.872;2024-01-06T12:23:28;2.20;1.00
37530;DHT22;23374;52.758;6.872;2024-01-06T12:25:49;2.20;99.90
37530;DHT22;23374;52.758;6.872;2024-01-06T12:28:10;2.20;1.00
37530;DHT22;23374;52.758;6.872;2024-01-06T12:30:30;2.20;99.90
37530;DHT22;23374;52.758;6.872;2024-01-06T12:32:51;2.20;99.90
37530;DHT22;23374;52.758;6.872;2024-01-06T12:35:12;2.20;1.00
37530;DHT22;23374;52.758;6.872;2024-01-06T12:37:32;2.20;1.00
37530;DHT22;23374;52.758;6.872;2024-01-06T12:39:57;2.20;1.00
37530;DHT22;23374;52.758;6.872;2024-01-06T12:42:18;2.20;1.00
37530;DHT22;23374;52.758;6.872;2024-01-06T12:44:40;2.20;1.00
37530;DHT22;23374;52.758;6.872;2024-01-06T12:47:01;2.20;1.00
37530;DHT22;23374;52.758;6.872;2024-01-06T12:49:21;2.20;1.00
37530;DHT22;23374;52.758;6.872;2024-01-06T12:51:42;2.10;1.00
37530;DHT22;23374;52.758;6.872;2024-01-06T12:54:03;2.10;99.90
37530;DHT22;23374;52.758;6.872;2024-01-06T12:56:23;2.20;1.00
37530;DHT22;23374;52.758;6.872;2024-01-06T12:58:44;2.10;99.90
37530;DHT22;23374;52.758;6.872;2024-01-06T13:01:04;2.10;99.90
37530;DHT22;23374;52.758;6.872;2024-01-06T13:03:24;2.10;99.90
37530;DHT22;23374;52.758;6.872;2024-01-06T13:05:45;2.10;99.90
37530;DHT22;23374;52.758;6.872;2024-01-06T13:08:07;2.10;99.90
37530;DHT22;23374;52.758;6.872;2024-01-06T13:10:28;2.10;99.90
37530;DHT22;23374;52.758;6.872;2024-01-06T13:12:48;2.10;1.00
37530;DHT22;23374;52.758;6.872;2024-01-06T13:15:09;2.10;99.90
37530;DHT22;23374;52.758;6.872;2024-01-06T13:17:31;2.10;99.90
37530;DHT22;23374;52.758;6.872;2024-01-06T13:19:51;2.10;99.90
37530;DHT22;23374;52.758;6.872;2024-01-06T13:22:11;2.10;99.90
37530;DHT22;23374;52.758;6.872;2024-01-06T13:24:33;2.10;99.90
37530;DHT22;23374;52.758;6.872;2024-01-06T13:26:53;2.10;99.90
37530;DHT22;23374;52.758;6.872;2024-01-06T13:29:14;2.10;99.90
37530;DHT22;23374;52.758;6.872;2024-01-06T13:31:34;2.10;99.90
37530;DHT22;23374;52.758;6.872;2024-01-06T13:33:54;2.20;99.90
37530;DHT22;23374;52.758;6.872;2024-01-06T13:36:15;2.10;99.90
37530;DHT22;23374;52.758;6.872;2024-01-06T13:38:38;2.10;99.90
37530;DHT22;23374;52.758;6.872;2024-01-06T13:40:59;2.20;99.90
37530;DHT22;23374;52.758;6.872;2024-01-06T13:43:19;2.20;99.90
37530;DHT22;23374;52.758;6.872;2024-01-06T13:45:39;2.20;99.90
37530;DHT22;23374;52.758;6.872;2024-01-06T13:48:01;2.10;99.90
37530;DHT22;23374;52.758;6.872;2024-01-06T13:50:22;2.10;99.90
37530;DHT22;23374;52.758;6.872;2024-01-06T13:52:43;2.10;1.00
37530;DHT22;23374;52.758;6.872;2024-01-06T13:55:04;2.10;99.90
37530;DHT22;23374;52.758;6.872;2024-01-06T13:57:25;2.10;1.00
37530;DHT22;23374;52.758;6.872;2024-01-06T13:59:45;2.20;1.00
37530;DHT22;23374;52.758;6.872;2024-01-06T14:02:06;2.20;1.00
37530;DHT22;23374;52.758;6.872;2024-01-06T14:04:27;2.20;1.00
37530;DHT22;23374;52.758;6.872;2024-01-06T14:06:47;2.20;1.00
37530;DHT22;23374;52.758;6.872;2024-01-06T14:09:09;2.10;1.00
37530;DHT22;23374;52.758;6.872;2024-01-06T14:11:29;2.10;99.90
37530;DHT22;23374;52.758;6.872;2024-01-06T14:13:50;2.10;99.90
37530;DHT22;23374;52.758;6.872;2024-01-06T14:16:11;2.00;99.90
37530;DHT22;23374;52.758;6.872;2024-01-06T14:18:32;2.10;99.90
37530;DHT22;23374;52.758;6.872;2024-01-06T14:20:53;2.10;1.00
37530;DHT22;23374;52.758;6.872;2024-01-06T14:23:15;2.00;1.00
37530;DHT22;23374;52.758;6.872;2024-01-06T14:25:36;2.00;99.90
37530;DHT22;23374;52.758;6.872;2024-01-06T14:27:56;2.00;1.00
37530;DHT22;23374;52.758;6.872;2024-01-06T14:30:17;1.90;1.00
37530;DHT22;23374;52.758;6.872;2024-01-06T14:32:37;1.90;1.00
37530;DHT22;23374;52.758;6.872;2024-01-06T14:34:57;2.00;1.00
37530;DHT22;23374;52.758;6.872;2024-01-06T14:37:18;2.00;1.00
37530;DHT22;23374;52.758;6.872;2024-01-06T14:39:38;2.00;1.00
37530;DHT22;23374;52.758;6.872;2024-01-06T14:41:59;2.00;1.00
37530;DHT22;23374;52.758;6.872;2024-01-06T14:44:19;2.00;1.00
37530;DHT22;23374;52.758;6.872;2024-01-06T14:46:42;2.00;1.00
37530;DHT22;23374;52.758;6.872;2024-01-06T14:49:02;2.00;1.00
37530;DHT22;23374;52.758;6.872;2024-01-06T14:51:22;2.00;1.00
37530;DHT22;23374;52.758;6.872;2024-01-06T14:53:42;2.00;1.00
37530;DHT22;23374;52.758;6.872;2024-01-06T14:56:04;2.00;1.00
37530;DHT22;23374;52.758;6.872;2024-01-06T14:58:24;2.00;1.00
37530;DHT22;23374;52.758;6.872;2024-01-06T15:00:45;2.00;1.00
37530;DHT22;23374;52.758;6.872;2024-01-06T15:03:05;2.10;83.40
37530;DHT22;23374;52.758;6.872;2024-01-06T15:05:25;2.00;1.00
37530;DHT22;23374;52.758;6.872;2024-01-06T15:07:48;2.00;1.00
37530;DHT22;23374;52.758;6.872;2024-01-06T15:10:09;2.00;1.00
37530;DHT22;23374;52.758;6.872;2024-01-06T15:12:30;2.00;1.00
37530;DHT22;23374;52.758;6.872;2024-01-06T15:14:50;2.00;1.00
37530;DHT22;23374;52.758;6.872;2024-01-06T15:17:10;2.00;1.00
37530;DHT22;23374;52.758;6.872;2024-01-06T15:19:31;2.00;4.90
37530;DHT22;23374;52.758;6.872;2024-01-06T15:21:55;2.00;37.10
37530;DHT22;23374;52.758;6.872;2024-01-06T15:24:15;2.00;1.00
37530;DHT22;23374;52.758;6.872;2024-01-06T15:26:36;2.00;1.00